createdAt,value
2022-08-28T00:02:26.295Z,99.90
2022-08-28T00:04:56.206Z,99.90
2022-08-28T00:07:25.498Z,99.90
2022-08-28T00:09:54.379Z,99.90
2022-08-28T00:12:22.855Z,99.90
2022-08-28T00:14:51.470Z,99.90
2022-08-28T00:17:20.065Z,99.90
2022-08-28T00:19:48.607Z,99.90
2022-08-28T00:22:18.576Z,99.90
2022-08-28T00:24:48.220Z,99.90
2022-08-28T00:27:34.026Z,99.90
2022-08-28T00:30:02.914Z,99.90
2022-08-28T00:32:31.461Z,99.90
2022-08-28T00:35:02.005Z,99.90
2022-08-28T00:37:32.276Z,99.90
2022-08-28T00:40:00.888Z,99.90
2022-08-28T00:42:30.974Z,99.90
2022-08-28T00:44:59.445Z,99.90
2022-08-28T00:47:28.406Z,99.90
2022-08-28T00:49:57.599Z,99.90
2022-08-28T00:52:27.431Z,99.90
2022-08-28T00:55:00.156Z,99.90
2022-08-28T00:57:31.947Z,99.90
2022-08-28T01:00:00.519Z,99.90
2022-08-28T01:02:29.264Z,99.90
2022-08-28T01:04:58.165Z,99.90
2022-08-28T01:07:27.039Z,99.90
2022-08-28T01:09:58.528Z,99.90
2022-08-28T01:12:30.689Z,99.90
2022-08-28T01:15:02.530Z,99.90
2022-08-28T01:17:36.719Z,99.90
2022-08-28T01:20:13.010Z,99.90
2022-08-28T01:22:46.036Z,99.90
2022-08-28T01:25:20.656Z,99.90
2022-08-28T01:27:49.272Z,99.90
2022-08-28T01:30:20.516Z,99.90
2022-08-28T01:32:52.405Z,99.90
2022-08-28T01:35:25.840Z,99.90
2022-08-28T01:37:55.898Z,99.90
2022-08-28T01:40:30.178Z,99.90
2022-08-28T01:43:08.797Z,99.90
2022-08-28T01:45:38.167Z,99.90
2022-08-28T01:48:07.866Z,99.90
2022-08-28T01:50:36.514Z,99.90
2022-08-28T01:53:06.419Z,99.90
2022-08-28T01:55:42.935Z,99.90
2022-08-28T01:58:12.841Z,99.90
2022-08-28T02:00:42.096Z,99.90
2022-08-28T02:03:12.920Z,99.90
2022-08-28T02:05:41.581Z,99.90
2022-08-28T02:08:10.592Z,99.90
2022-08-28T02:10:42.337Z,99.90
2022-08-28T02:13:11.818Z,99.90
2022-08-28T02:15:42.385Z,99.90
2022-08-28T02:18:11.909Z,99.90
2022-08-28T02:20:42.362Z,99.90
2022-08-28T02:23:11.118Z,99.90
2022-08-28T02:25:42.044Z,99.90
2022-08-28T02:28:11.319Z,99.90
2022-08-28T02:30:40.646Z,99.90
2022-08-28T02:33:09.323Z,99.90
2022-08-28T02:35:38.817Z,99.90
2022-08-28T02:38:07.689Z,99.90
2022-08-28T02:40:37.331Z,99.90
2022-08-28T02:43:08.173Z,99.90
2022-08-28T02:45:36.844Z,99.90
2022-08-28T02:48:15.650Z,99.90
2022-08-28T02:50:46.345Z,99.90
2022-08-28T02:53:15.536Z,99.90
2022-08-28T02:55:44.312Z,99.90
2022-08-28T02:58:14.435Z,99.90
2022-08-28T03:00:46.769Z,99.90
2022-08-28T03:03:15.792Z,99.90
2022-08-28T03:05:44.943Z,99.90
2022-08-28T03:08:13.915Z,99.90
2022-08-28T03:10:42.623Z,99.90
2022-08-28T03:13:11.802Z,99.90
2022-08-28T03:15:57.375Z,99.90
2022-08-28T03:18:27.314Z,99.90
2022-08-28T03:20:56.725Z,99.90
2022-08-28T03:23:28.341Z,99.90
2022-08-28T03:25:59.766Z,99.90
2022-08-28T03:28:32.202Z,99.90
2022-08-28T03:31:03.923Z,99.90
2022-08-28T03:33:33.870Z,99.90
2022-08-28T03:36:04.760Z,99.90
2022-08-28T03:38:33.971Z,99.90
2022-08-28T03:41:02.598Z,99.90
2022-08-28T03:43:31.591Z,99.90
2022-08-28T03:46:02.466Z,99.90
2022-08-28T03:48:34.288Z,99.90
2022-08-28T03:51:03.609Z,99.90
2022-08-28T03:53:33.322Z,99.90
2022-08-28T03:56:02.040Z,99.90
2022-08-28T03:58:31.190Z,99.90
2022-08-28T04:00:59.804Z,99.90
2022-08-28T04:03:28.485Z,99.90
2022-08-28T04:05:58.744Z,99.90
2022-08-28T04:08:27.855Z,99.90
2022-08-28T04:10:56.666Z,99.90
2022-08-28T04:13:25.281Z,99.90
2022-08-28T04:16:01.445Z,99.90
2022-08-28T04:18:32.299Z,99.90
2022-08-28T04:21:04.097Z,99.90
2022-08-28T04:23:32.986Z,99.90
2022-08-28T04:26:01.559Z,99.90
2022-08-28T04:28:32.691Z,99.90
2022-08-28T04:31:01.317Z,99.90
2022-08-28T04:33:31.471Z,99.90
2022-08-28T04:36:06.408Z,99.90
2022-08-28T04:38:35.259Z,99.90
2022-08-28T04:41:05.958Z,99.90
2022-08-28T04:43:35.076Z,99.90
2022-08-28T04:46:07.259Z,99.90
2022-08-28T04:48:35.906Z,99.90
2022-08-28T04:51:07.107Z,99.90
2022-08-28T04:53:36.609Z,99.90
2022-08-28T04:56:07.363Z,99.90
2022-08-28T04:58:36.218Z,99.90
2022-08-28T05:01:09.338Z,99.90
2022-08-28T05:03:37.951Z,99.90
2022-08-28T05:06:08.996Z,99.90
2022-08-28T05:08:37.700Z,99.90
2022-08-28T05:11:14.885Z,99.90
2022-08-28T05:14:04.420Z,99.90
2022-08-28T05:16:34.708Z,99.90
2022-08-28T05:19:04.748Z,99.90
2022-08-28T05:21:34.699Z,99.90
2022-08-28T05:24:04.308Z,99.90
2022-08-28T05:26:33.991Z,99.90
2022-08-28T05:29:03.673Z,99.90
2022-08-28T05:31:34.011Z,99.90
2022-08-28T05:34:04.591Z,99.90
2022-08-28T05:36:39.391Z,99.90
2022-08-28T05:39:10.367Z,99.90
2022-08-28T05:41:41.947Z,99.90
2022-08-28T05:44:12.845Z,99.90
2022-08-28T05:46:43.669Z,99.90
2022-08-28T05:49:12.661Z,99.90
2022-08-28T05:51:44.511Z,99.90
2022-08-28T05:54:15.263Z,99.90
2022-08-28T05:56:45.990Z,99.90
2022-08-28T05:59:16.096Z,99.90
2022-08-28T06:01:46.722Z,99.90
2022-08-28T06:04:18.003Z,99.90
2022-08-28T06:06:49.675Z,99.90
2022-08-28T06:09:22.455Z,99.90
2022-08-28T06:11:55.715Z,99.90
2022-08-28T06:14:25.896Z,99.90
2022-08-28T06:16:56.376Z,99.90
2022-08-28T06:19:27.056Z,99.90
2022-08-28T06:21:59.422Z,99.90
2022-08-28T06:24:29.603Z,99.90
2022-08-28T06:26:59.749Z,99.90
2022-08-28T06:29:30.047Z,99.90
2022-08-28T06:32:01.479Z,99.90
2022-08-28T06:34:30.636Z,99.90
2022-08-28T06:37:00.798Z,99.90
2022-08-28T06:39:29.399Z,99.90
2022-08-28T06:41:58.523Z,99.90
2022-08-28T06:44:28.228Z,99.90
2022-08-28T06:46:58.012Z,99.90
2022-08-28T06:49:26.531Z,99.90
2022-08-28T06:51:56.329Z,99.90
2022-08-28T06:54:26.337Z,99.90
2022-08-28T06:56:55.122Z,99.90
2022-08-28T06:59:23.571Z,99.90
2022-08-28T07:01:54.621Z,99.90
2022-08-28T07:04:23.333Z,99.90
2022-08-28T07:06:54.643Z,99.90
2022-08-28T07:09:25.372Z,99.90
2022-08-28T07:11:54.178Z,99.90
2022-08-28T07:14:23.372Z,99.90
2022-08-28T07:16:54.859Z,99.90
2022-08-28T07:19:23.403Z,99.90
2022-08-28T07:21:52.103Z,99.90
2022-08-28T07:24:20.857Z,99.90
2022-08-28T07:26:50.963Z,99.90
2022-08-28T07:29:20.510Z,99.90
2022-08-28T07:31:51.672Z,99.90
2022-08-28T07:34:22.358Z,99.90
2022-08-28T07:36:58.210Z,99.90
2022-08-28T07:39:26.683Z,99.90
2022-08-28T07:41:56.702Z,99.90
2022-08-28T07:44:43.132Z,99.90
2022-08-28T07:47:12.814Z,99.90
2022-08-28T07:49:42.280Z,99.90
2022-08-28T07:52:11.809Z,99.90
2022-08-28T07:54:41.569Z,99.90
2022-08-28T07:57:11.721Z,99.90
2022-08-28T07:59:40.924Z,99.90
2022-08-28T08:02:11.678Z,99.90
2022-08-28T08:04:40.711Z,99.90
2022-08-28T08:07:09.670Z,99.90
2022-08-28T08:09:41.526Z,99.90
2022-08-28T08:12:12.665Z,99.90
2022-08-28T08:14:43.138Z,99.90
2022-08-28T08:17:12.159Z,99.90
2022-08-28T08:19:41.149Z,99.90
2022-08-28T08:22:09.779Z,99.90
2022-08-28T08:24:38.532Z,99.90
2022-08-28T08:27:07.769Z,99.90
2022-08-28T08:29:39.896Z,99.90
2022-08-28T08:32:10.938Z,99.90
2022-08-28T08:34:41.832Z,99.90
2022-08-28T08:37:10.586Z,99.90
2022-08-28T08:39:39.340Z,99.90
2022-08-28T08:42:12.040Z,99.90
2022-08-28T08:44:44.980Z,99.90
2022-08-28T08:47:18.569Z,99.90
2022-08-28T08:49:53.205Z,99.90
2022-08-28T08:52:45.492Z,99.90
2022-08-28T08:55:25.918Z,99.90
2022-08-28T08:58:00.753Z,99.90
2022-08-28T09:00:32.650Z,99.90
2022-08-28T09:03:07.365Z,99.90
2022-08-28T09:05:47.130Z,99.90
2022-08-28T09:08:26.850Z,99.90
2022-08-28T09:11:02.831Z,99.90
2022-08-28T09:13:41.678Z,99.90
2022-08-28T09:16:29.310Z,99.90
2022-08-28T09:18:59.573Z,99.90
2022-08-28T09:21:32.403Z,99.90
2022-08-28T09:24:05.776Z,99.90
2022-08-28T09:26:34.937Z,99.90
2022-08-28T09:29:07.017Z,99.90
2022-08-28T09:31:42.462Z,99.90
2022-08-28T09:34:24.114Z,99.90
2022-08-28T09:36:53.877Z,99.90
2022-08-28T09:39:24.828Z,99.90
2022-08-28T09:42:23.143Z,99.90
2022-08-28T09:45:02.547Z,99.90
2022-08-28T09:47:47.306Z,99.90
2022-08-28T09:50:24.206Z,99.90
2022-08-28T09:52:56.024Z,99.90
2022-08-28T09:55:32.198Z,99.90
2022-08-28T09:58:02.113Z,99.90
2022-08-28T10:00:34.938Z,99.90
2022-08-28T10:03:15.103Z,99.90
2022-08-28T10:05:50.017Z,99.90
2022-08-28T10:08:32.052Z,99.90
2022-08-28T10:11:08.453Z,99.90
2022-08-28T10:13:45.013Z,99.90
2022-08-28T10:16:28.910Z,99.90
2022-08-28T10:19:06.955Z,99.90
2022-08-28T10:21:44.671Z,99.90
2022-08-28T10:24:32.508Z,99.90
2022-08-28T10:27:14.378Z,99.90
2022-08-28T10:29:53.148Z,99.90
2022-08-28T10:32:43.928Z,99.90
2022-08-28T10:35:19.479Z,99.90
2022-08-28T10:38:00.076Z,99.90
2022-08-28T10:40:34.709Z,99.90
2022-08-28T10:43:08.994Z,99.90
2022-08-28T10:45:40.377Z,99.90
2022-08-28T10:48:12.481Z,99.90
2022-08-28T10:50:47.210Z,99.90
2022-08-28T10:53:20.566Z,99.90
2022-08-28T10:55:56.735Z,99.50
2022-08-28T10:58:28.032Z,98.70
2022-08-28T11:01:01.448Z,98.10
2022-08-28T11:03:35.548Z,97.40
2022-08-28T11:06:11.720Z,94.60
2022-08-28T11:08:41.926Z,93.30
2022-08-28T11:11:16.149Z,92.70
2022-08-28T11:13:54.962Z,92.40
2022-08-28T11:16:27.693Z,92.30
2022-08-28T11:19:31.713Z,92.00
2022-08-28T11:22:09.824Z,90.50
2022-08-28T11:24:48.300Z,89.40
2022-08-28T11:27:27.058Z,89.70
2022-08-28T11:30:06.598Z,90.90
2022-08-28T11:32:56.203Z,90.30
2022-08-28T11:35:50.876Z,88.20
2022-08-28T11:39:11.546Z,82.60
2022-08-28T11:42:15.923Z,78.60
2022-08-28T11:44:46.050Z,80.20
2022-08-28T11:47:46.346Z,78.50
2022-08-28T11:50:22.815Z,71.00
2022-08-28T11:53:17.086Z,70.40
2022-08-28T11:56:03.320Z,69.10
2022-08-28T11:58:40.340Z,68.60
2022-08-28T12:01:11.083Z,66.80
2022-08-28T12:03:43.558Z,64.10
2022-08-28T12:06:13.459Z,60.30
2022-08-28T12:09:12.521Z,58.10
2022-08-28T12:11:59.184Z,52.90
2022-08-28T12:15:07.987Z,53.70
2022-08-28T12:17:52.549Z,49.10
2022-08-28T12:20:35.122Z,47.60
2022-08-28T12:23:39.306Z,47.40
2022-08-28T12:26:10.908Z,47.00
2022-08-28T12:28:46.624Z,49.70
2022-08-28T12:32:03.618Z,48.30
2022-08-28T12:34:41.395Z,45.20
2022-08-28T12:37:29.505Z,48.50
2022-08-28T12:40:05.470Z,47.70
2022-08-28T12:42:39.413Z,48.40
2022-08-28T12:45:11.174Z,48.70
2022-08-28T12:47:44.125Z,49.90
2022-08-28T12:50:23.498Z,51.40
2022-08-28T12:52:54.184Z,51.70
2022-08-28T12:55:25.407Z,51.80
2022-08-28T12:57:55.042Z,51.80
2022-08-28T13:00:26.063Z,53.20
2022-08-28T13:02:56.932Z,52.90
2022-08-28T13:05:33.555Z,52.30
2022-08-28T13:08:05.670Z,50.30
2022-08-28T13:10:39.175Z,51.00
2022-08-28T13:13:11.087Z,49.50
2022-08-28T13:16:00.944Z,48.40
2022-08-28T13:18:51.508Z,47.30
2022-08-28T13:21:37.357Z,45.80
2022-08-28T13:24:26.565Z,43.20
2022-08-28T13:27:06.277Z,43.30
2022-08-28T13:29:35.710Z,44.50
2022-08-28T13:32:06.987Z,46.30
2022-08-28T13:34:37.997Z,45.40
2022-08-28T13:37:20.373Z,45.00
2022-08-28T13:39:49.412Z,44.50
2022-08-28T13:42:19.424Z,45.60
2022-08-28T13:44:50.819Z,46.00
2022-08-28T13:47:19.461Z,46.30
2022-08-28T13:49:48.088Z,45.10
2022-08-28T13:52:16.727Z,43.60
2022-08-28T13:54:45.658Z,42.80
2022-08-28T13:57:14.712Z,41.70
2022-08-28T13:59:44.865Z,41.70
2022-08-28T14:02:33.557Z,41.60
2022-08-28T14:05:02.201Z,40.60
2022-08-28T14:07:30.680Z,40.20
2022-08-28T14:09:59.689Z,38.80
2022-08-28T14:12:32.809Z,37.40
2022-08-28T14:15:04.150Z,36.70
2022-08-28T14:17:32.800Z,36.00
2022-08-28T14:20:01.871Z,35.80
2022-08-28T14:22:31.081Z,35.70
2022-08-28T14:24:59.549Z,34.90
2022-08-28T14:27:28.107Z,34.20
2022-08-28T14:29:56.789Z,33.50
2022-08-28T14:32:26.763Z,32.10
2022-08-28T14:34:55.700Z,31.40
2022-08-28T14:37:24.729Z,31.30
2022-08-28T14:39:53.371Z,31.20
2022-08-28T14:42:22.018Z,30.90
2022-08-28T14:44:50.746Z,30.40
2022-08-28T14:47:19.338Z,29.90
2022-08-28T14:49:49.286Z,29.30
2022-08-28T14:52:19.485Z,29.30
2022-08-28T14:54:48.493Z,29.10
2022-08-28T14:57:17.109Z,28.90
2022-08-28T14:59:46.023Z,28.70
2022-08-28T15:02:14.768Z,28.80
2022-08-28T15:04:43.842Z,28.60
2022-08-28T15:07:13.964Z,28.70
2022-08-28T15:09:44.096Z,29.10
2022-08-28T15:12:12.737Z,29.30
2022-08-28T15:14:41.473Z,30.10
2022-08-28T15:17:34.010Z,30.70
2022-08-28T15:20:04.457Z,31.80
2022-08-28T15:22:34.645Z,31.20
2022-08-28T15:25:03.508Z,30.80
2022-08-28T15:27:32.058Z,30.50
2022-08-28T15:30:00.841Z,30.70
2022-08-28T15:32:29.595Z,31.00
2022-08-28T15:34:58.048Z,31.50
2022-08-28T15:37:29.408Z,31.60
2022-08-28T15:40:19.530Z,31.50
2022-08-28T15:42:48.718Z,30.90
2022-08-28T15:45:17.480Z,30.90
2022-08-28T15:47:46.031Z,30.60
2022-08-28T15:50:17.243Z,30.90
2022-08-28T15:52:48.575Z,30.80
2022-08-28T15:55:18.763Z,31.00
2022-08-28T15:57:47.334Z,30.70
2022-08-28T16:00:16.771Z,30.90
2022-08-28T16:02:45.487Z,30.50
2022-08-28T16:05:14.530Z,30.10
2022-08-28T16:07:43.048Z,30.00
2022-08-28T16:10:13.524Z,30.30
2022-08-28T16:12:43.463Z,30.60
2022-08-28T16:15:21.096Z,30.40
2022-08-28T16:17:50.092Z,29.80
2022-08-28T16:20:21.748Z,29.90
2022-08-28T16:22:51.809Z,30.00
2022-08-28T16:25:20.671Z,29.80
2022-08-28T16:27:50.577Z,29.60
2022-08-28T16:30:20.585Z,29.70
2022-08-28T16:32:54.180Z,29.70
2022-08-28T16:35:24.039Z,29.60
2022-08-28T16:37:52.532Z,29.80
2022-08-28T16:40:21.631Z,30.00
2022-08-28T16:42:52.295Z,29.80
2022-08-28T16:45:21.562Z,30.00
2022-08-28T16:47:50.734Z,30.00
2022-08-28T16:50:19.854Z,30.00
2022-08-28T16:52:48.492Z,30.00
2022-08-28T16:55:17.240Z,30.20
2022-08-28T16:57:46.297Z,30.60
2022-08-28T17:00:16.879Z,31.00
2022-08-28T17:02:46.893Z,31.50
2022-08-28T17:05:16.553Z,32.00
2022-08-28T17:07:45.966Z,32.60
2022-08-28T17:10:18.008Z,32.70
2022-08-28T17:12:46.618Z,32.90
2022-08-28T17:15:17.012Z,33.20
2022-08-28T17:17:49.350Z,33.50
2022-08-28T17:20:35.660Z,33.70
2022-08-28T17:23:06.412Z,34.10
2022-08-28T17:25:34.975Z,34.30
2022-08-28T17:28:03.820Z,34.60
2022-08-28T17:30:33.757Z,35.10
2022-08-28T17:33:02.307Z,35.60
2022-08-28T17:35:31.275Z,36.10
2022-08-28T17:38:09.372Z,36.60
2022-08-28T17:40:38.126Z,37.60
2022-08-28T17:43:08.602Z,38.70
2022-08-28T17:45:39.826Z,40.10
2022-08-28T17:48:09.146Z,41.20
2022-08-28T17:50:38.765Z,42.50
2022-08-28T17:53:08.315Z,43.70
2022-08-28T17:55:37.075Z,44.60
2022-08-28T17:58:06.787Z,45.60
2022-08-28T18:00:36.790Z,46.70
2022-08-28T18:03:08.652Z,47.70
2022-08-28T18:05:38.159Z,48.30
2022-08-28T18:08:06.793Z,49.50
2022-08-28T18:10:36.147Z,50.10
2022-08-28T18:13:05.471Z,50.80
2022-08-28T18:15:34.317Z,51.60
2022-08-28T18:18:06.933Z,52.00
2022-08-28T18:20:35.713Z,52.80
2022-08-28T18:23:05.021Z,53.30
2022-08-28T18:25:50.316Z,54.20
2022-08-28T18:28:22.412Z,55.00
2022-08-28T18:31:00.072Z,55.30
2022-08-28T18:33:30.254Z,55.90
2022-08-28T18:35:59.535Z,56.40
2022-08-28T18:38:30.119Z,56.80
2022-08-28T18:40:59.831Z,57.40
2022-08-28T18:43:28.761Z,57.80
2022-08-28T18:45:57.702Z,58.50
2022-08-28T18:48:26.356Z,58.80
2022-08-28T18:50:56.478Z,59.40
2022-08-28T18:53:25.510Z,59.70
2022-08-28T18:55:55.195Z,60.10
2022-08-28T18:58:24.343Z,60.50
2022-08-28T19:00:54.167Z,61.20
2022-08-28T19:03:24.046Z,61.70
2022-08-28T19:05:55.368Z,61.80
2022-08-28T19:08:25.861Z,62.40
2022-08-28T19:10:55.365Z,63.10
2022-08-28T19:13:24.040Z,63.40
2022-08-28T19:15:54.946Z,64.10
2022-08-28T19:18:24.283Z,64.50
2022-08-28T19:20:53.075Z,65.10
2022-08-28T19:23:21.781Z,65.10
2022-08-28T19:25:51.892Z,65.80
2022-08-28T19:28:20.686Z,66.50
2022-08-28T19:30:49.761Z,66.80
2022-08-28T19:33:18.416Z,67.50
2022-08-28T19:35:47.292Z,68.10
2022-08-28T19:38:16.095Z,68.60
2022-08-28T19:40:45.647Z,69.40
2022-08-28T19:43:18.842Z,69.90
2022-08-28T19:45:47.732Z,70.60
2022-08-28T19:48:16.896Z,71.50
2022-08-28T19:50:47.118Z,72.00
2022-08-28T19:53:17.353Z,72.40
2022-08-28T19:55:46.683Z,72.80
2022-08-28T19:58:16.903Z,73.40
2022-08-28T20:00:47.646Z,74.20
2022-08-28T20:03:16.438Z,74.90
2022-08-28T20:05:49.025Z,75.30
2022-08-28T20:08:18.371Z,75.80
2022-08-28T20:10:47.284Z,76.50
2022-08-28T20:13:16.310Z,76.60
2022-08-28T20:15:49.076Z,77.40
2022-08-28T20:18:18.243Z,77.50
2022-08-28T20:20:47.562Z,78.40
2022-08-28T20:23:17.207Z,79.40
2022-08-28T20:25:49.338Z,80.10
2022-08-28T20:28:19.144Z,80.90
2022-08-28T20:30:49.597Z,81.70
2022-08-28T20:33:18.372Z,82.80
2022-08-28T20:35:47.960Z,83.10
2022-08-28T20:38:17.309Z,84.40
2022-08-28T20:40:47.077Z,85.40
2022-08-28T20:43:16.186Z,86.50
2022-08-28T20:45:45.704Z,87.60
2022-08-28T20:48:16.218Z,88.20
2022-08-28T20:50:48.140Z,89.20
2022-08-28T20:53:23.294Z,90.00
2022-08-28T20:56:09.555Z,90.50
2022-08-28T20:58:39.574Z,91.20
2022-08-28T21:01:08.958Z,91.40
2022-08-28T21:03:41.112Z,91.70
2022-08-28T21:06:12.110Z,92.10
2022-08-28T21:08:42.738Z,92.40
2022-08-28T21:11:13.151Z,92.90
2022-08-28T21:13:43.106Z,93.20
2022-08-28T21:16:13.014Z,93.60
2022-08-28T21:19:13.937Z,93.90
2022-08-28T21:21:36.187Z,94.30
2022-08-28T21:24:06.689Z,95.00
2022-08-28T21:26:37.659Z,95.80
2022-08-28T21:29:06.960Z,95.80
2022-08-28T21:31:36.406Z,96.40
2022-08-28T21:34:07.012Z,97.20
2022-08-28T21:36:36.631Z,97.60
2022-08-28T21:39:07.028Z,98.00
2022-08-28T21:41:37.055Z,98.50
2022-08-28T21:44:06.936Z,99.10
2022-08-28T21:46:36.846Z,99.80
2022-08-28T21:49:08.164Z,99.90
2022-08-28T21:51:37.323Z,99.90
2022-08-28T21:54:06.643Z,99.90
2022-08-28T21:56:36.086Z,99.90
2022-08-28T21:59:05.478Z,99.90
2022-08-28T22:01:35.722Z,99.90
2022-08-28T22:04:07.499Z,99.90
2022-08-28T22:06:36.661Z,99.90
2022-08-28T22:09:06.974Z,99.90
2022-08-28T22:11:36.533Z,99.90
2022-08-28T22:14:05.179Z,99.90
2022-08-28T22:16:33.723Z,99.90
2022-08-28T22:19:03.884Z,99.90
2022-08-28T22:21:51.702Z,99.90
2022-08-28T22:24:20.228Z,99.90
2022-08-28T22:26:50.294Z,99.90
2022-08-28T22:29:26.507Z,99.90
2022-08-28T22:31:54.976Z,99.90
2022-08-28T22:34:23.397Z,99.90
2022-08-28T22:36:53.252Z,99.90
2022-08-28T22:39:21.793Z,99.90
2022-08-28T22:41:50.280Z,99.90
2022-08-28T22:44:18.867Z,99.90
2022-08-28T22:46:47.317Z,99.90
2022-08-28T22:49:16.465Z,99.90
2022-08-28T22:51:44.954Z,99.90
2022-08-28T22:54:14.846Z,99.90
2022-08-28T22:56:43.485Z,99.90
2022-08-28T22:59:12.542Z,99.90
2022-08-28T23:01:42.949Z,99.90
2022-08-28T23:04:12.331Z,99.90
2022-08-28T23:06:41.093Z,99.90
2022-08-28T23:09:10.405Z,99.90
2022-08-28T23:11:40.406Z,99.90
2022-08-28T23:14:09.154Z,99.90
2022-08-28T23:16:37.774Z,99.90
2022-08-28T23:19:08.933Z,99.90
2022-08-28T23:21:40.861Z,99.90
2022-08-28T23:24:12.974Z,99.90
2022-08-28T23:26:43.377Z,99.90
2022-08-28T23:29:12.723Z,99.90
2022-08-28T23:31:41.557Z,99.90
2022-08-28T23:34:10.233Z,99.90
2022-08-28T23:36:39.636Z,99.90
2022-08-28T23:39:12.204Z,99.90
2022-08-28T23:41:42.294Z,99.90
2022-08-28T23:44:10.944Z,99.90
2022-08-28T23:46:41.644Z,99.90
2022-08-28T23:49:11.835Z,99.90
2022-08-28T23:51:42.017Z,99.90
2022-08-28T23:54:12.219Z,99.90
2022-08-28T23:56:42.204Z,99.90
2022-08-28T23:59:12.136Z,99.90
